sensor_id;sensor_type;location;lat;lon;timestamp;pressure;altitude;pressure_sealevel;temperature;humidity
68366;BME280;55283;51.466;5.478;2023-05-23T00:02:03;101713.13;;;24.69;40.52
68366;BME280;55283;51.466;5.478;2023-05-23T00:04:32;101707.97;;;24.67;40.46
68366;BME280;55283;51.466;5.478;2023-05-23T00:06:58;101715.97;;;24.69;40.63
68366;BME280;55283;51.466;5.478;2023-05-23T00:09:23;101717.22;;;24.68;40.46
68366;BME280;55283;51.466;5.478;2023-05-23T00:11:48;101718.44;;;24.67;40.63
68366;BME280;55283;51.466;5.478;2023-05-23T00:14:14;101712.69;;;24.57;40.61
68366;BME280;55283;51.466;5.478;2023-05-23T00:16:44;101706.59;;;24.59;40.56
68366;BME280;55283;51.466;5.478;2023-05-23T00:19:11;101708.63;;;24.58;40.39
68366;BME280;55283;51.466;5.478;2023-05-23T00:21:39;101716.84;;;24.66;40.61
68366;BME280;55283;51.466;5.478;2023-05-23T00:24:04;101729.28;;;24.68;40.40
68366;BME280;55283;51.466;5.478;2023-05-23T00:26:30;101710.66;;;24.58;40.63
68366;BME280;55283;51.466;5.478;2023-05-23T00:28:56;101731.75;;;24.66;40.27
68366;BME280;55283;51.466;5.478;2023-05-23T00:31:22;101737.38;;;24.66;40.30
68366;BME280;55283;51.466;5.478;2023-05-23T00:33:47;101732.53;;;24.67;40.23
68366;BME280;55283;51.466;5.478;2023-05-23T00:36:13;101730.59;;;24.63;40.54
68366;BME280;55283;51.466;5.478;2023-05-23T00:38:38;101729.38;;;24.65;40.29
68366;BME280;55283;51.466;5.478;2023-05-23T00:41:04;101728.25;;;24.62;40.48
68366;BME280;55283;51.466;5.478;2023-05-23T00:43:30;101720.94;;;24.65;40.55
68366;BME280;55283;51.466;5.478;2023-05-23T00:45:56;101735.03;;;24.65;40.42
68366;BME280;55283;51.466;5.478;2023-05-23T00:48:23;101726.66;;;24.61;40.63
68366;BME280;55283;51.466;5.478;2023-05-23T00:50:49;101717.97;;;24.55;40.49
68366;BME280;55283;51.466;5.478;2023-05-23T00:53:15;101735.34;;;24.67;40.32
68366;BME280;55283;51.466;5.478;2023-05-23T00:55:41;101738.16;;;24.67;40.38
68366;BME280;55283;51.466;5.478;2023-05-23T00:58:08;101738.16;;;24.67;40.34
68366;BME280;55283;51.466;5.478;2023-05-23T01:00:33;101733.91;;;24.62;40.36
68366;BME280;55283;51.466;5.478;2023-05-23T01:03:00;101738.28;;;24.63;40.28
68366;BME280;55283;51.466;5.478;2023-05-23T01:05:25;101737.50;;;24.62;40.33
68366;BME280;55283;51.466;5.478;2023-05-23T01:07:51;101741.09;;;24.63;40.35
68366;BME280;55283;51.466;5.478;2023-05-23T01:10:25;101740.66;;;24.65;40.43
68366;BME280;55283;51.466;5.478;2023-05-23T01:15:44;101749.13;;;24.65;40.25
68366;BME280;55283;51.466;5.478;2023-05-23T01:20:42;101749.22;;;24.61;40.31
68366;BME280;55283;51.466;5.478;2023-05-23T01:23:25;101740.09;;;24.57;40.19
68366;BME280;55283;51.466;5.478;2023-05-23T01:28:38;101754.53;;;24.59;40.24
68366;BME280;55283;51.466;5.478;2023-05-23T01:31:07;101756.88;;;24.60;40.32
68366;BME280;55283;51.466;5.478;2023-05-23T01:33:35;101756.56;;;24.58;40.36
68366;BME280;55283;51.466;5.478;2023-05-23T01:36:02;101748.31;;;24.51;40.43
68366;BME280;55283;51.466;5.478;2023-05-23T01:38:28;101765.00;;;24.58;40.36
68366;BME280;55283;51.466;5.478;2023-05-23T01:40:53;101757.34;;;24.59;40.46
68366;BME280;55283;51.466;5.478;2023-05-23T01:43:19;101766.59;;;24.59;40.17
68366;BME280;55283;51.466;5.478;2023-05-23T01:45:45;101754.28;;;24.53;40.28
68366;BME280;55283;51.466;5.478;2023-05-23T01:48:11;101757.44;;;24.55;40.31
68366;BME280;55283;51.466;5.478;2023-05-23T01:50:38;101759.47;;;24.55;40.10
68366;BME280;55283;51.466;5.478;2023-05-23T01:53:04;101767.72;;;24.62;40.18
68366;BME280;55283;51.466;5.478;2023-05-23T01:55:30;101770.97;;;24.60;40.24
68366;BME280;55283;51.466;5.478;2023-05-23T01:57:56;101768.50;;;24.62;40.13
68366;BME280;55283;51.466;5.478;2023-05-23T02:00:22;101760.25;;;24.55;40.18
68366;BME280;55283;51.466;5.478;2023-05-23T02:02:47;101770.19;;;24.60;40.32
68366;BME280;55283;51.466;5.478;2023-05-23T02:05:13;101779.44;;;24.60;40.22
68366;BME280;55283;51.466;5.478;2023-05-23T02:07:38;101764.56;;;24.60;40.26
68366;BME280;55283;51.466;5.478;2023-05-23T02:10:06;101768.16;;;24.60;40.23
68366;BME280;55283;51.466;5.478;2023-05-23T02:12:32;101773.47;;;24.58;40.21
68366;BME280;55283;51.466;5.478;2023-05-23T02:14:57;101774.25;;;24.59;40.43
68366;BME280;55283;51.466;5.478;2023-05-23T02:17:22;101772.53;;;24.49;40.24
68366;BME280;55283;51.466;5.478;2023-05-23T02:19:48;101781.94;;;24.58;40.24
68366;BME280;55283;51.466;5.478;2023-05-23T02:22:14;101788.69;;;24.61;40.31
68366;BME280;55283;51.466;5.478;2023-05-23T02:24:39;101789.91;;;24.60;40.32
68366;BME280;55283;51.466;5.478;2023-05-23T02:27:05;101787.44;;;24.62;40.18
68366;BME280;55283;51.466;5.478;2023-05-23T02:29:31;101802.09;;;24.57;40.19
68366;BME280;55283;51.466;5.478;2023-05-23T02:31:56;101799.16;;;24.60;40.33
68366;BME280;55283;51.466;5.478;2023-05-23T02:34:21;101802.44;;;24.59;40.13
68366;BME280;55283;51.466;5.478;2023-05-23T02:36:47;101805.25;;;24.59;40.20
68366;BME280;55283;51.466;5.478;2023-05-23T02:39:12;101789.69;;;24.54;40.17
68366;BME280;55283;51.466;5.478;2023-05-23T02:41:38;101786.19;;;24.50;40.05
68366;BME280;55283;51.466;5.478;2023-05-23T02:44:03;101799.63;;;24.59;40.10
68366;BME280;55283;51.466;5.478;2023-05-23T02:46:28;101802.09;;;24.57;40.18
68366;BME280;55283;51.466;5.478;2023-05-23T02:48:54;101797.25;;;24.57;39.92
68366;BME280;55283;51.466;5.478;2023-05-23T02:51:19;101796.47;;;24.57;40.00
68366;BME280;55283;51.466;5.478;2023-05-23T02:53:45;101803.59;;;24.61;39.85
68366;BME280;55283;51.466;5.478;2023-05-23T02:56:11;101797.59;;;24.59;40.10
68366;BME280;55283;51.466;5.478;2023-05-23T02:58:37;101797.94;;;24.61;40.10
68366;BME280;55283;51.466;5.478;2023-05-23T03:01:04;101799.28;;;24.57;40.11
68366;BME280;55283;51.466;5.478;2023-05-23T03:03:30;101797.72;;;24.56;40.01
68366;BME280;55283;51.466;5.478;2023-05-23T03:05:58;101795.66;;;24.56;40.11
68366;BME280;55283;51.466;5.478;2023-05-23T03:08:24;101798.03;;;24.58;39.98
68366;BME280;55283;51.466;5.478;2023-05-23T03:10:50;101792.50;;;24.54;40.13
68366;BME280;55283;51.466;5.478;2023-05-23T03:13:16;101804.38;;;24.62;40.16
68366;BME280;55283;51.466;5.478;2023-05-23T03:15:41;101801.31;;;24.56;39.93
68366;BME280;55283;51.466;5.478;2023-05-23T03:18:07;101803.66;;;24.58;39.91
68366;BME280;55283;51.466;5.478;2023-05-23T03:20:32;101801.66;;;24.58;40.30
68366;BME280;55283;51.466;5.478;2023-05-23T03:22:57;101787.75;;;24.51;40.10
68366;BME280;55283;51.466;5.478;2023-05-23T03:25:23;101807.31;;;24.58;40.11
68366;BME280;55283;51.466;5.478;2023-05-23T03:27:48;101806.41;;;24.61;39.87
68366;BME280;55283;51.466;5.478;2023-05-23T03:30:14;101803.88;;;24.51;40.04
68366;BME280;55283;51.466;5.478;2023-05-23T03:32:39;101809.41;;;24.54;40.08
68366;BME280;55283;51.466;5.478;2023-05-23T03:35:05;101810.13;;;24.58;40.18
68366;BME280;55283;51.466;5.478;2023-05-23T03:37:31;101816.19;;;24.57;40.11
68366;BME280;55283;51.466;5.478;2023-05-23T03:39:56;101812.94;;;24.58;39.88
68366;BME280;55283;51.466;5.478;2023-05-23T03:42:21;101812.13;;;24.58;40.19
68366;BME280;55283;51.466;5.478;2023-05-23T03:44:47;101807.72;;;24.57;40.07
68366;BME280;55283;51.466;5.478;2023-05-23T03:47:12;101811.34;;;24.57;39.95
68366;BME280;55283;51.466;5.478;2023-05-23T03:49:37;101815.75;;;24.58;40.04
68366;BME280;55283;51.466;5.478;2023-05-23T03:52:03;101819.00;;;24.57;39.98
68366;BME280;55283;51.466;5.478;2023-05-23T03:54:28;101822.97;;;24.59;39.91
68366;BME280;55283;51.466;5.478;2023-05-23T03:56:54;101816.97;;;24.57;40.01
68366;BME280;55283;51.466;5.478;2023-05-23T03:59:19;101825.91;;;24.56;40.15
68366;BME280;55283;51.466;5.478;2023-05-23T04:01:44;101824.66;;;24.57;40.08
68366;BME280;55283;51.466;5.478;2023-05-23T04:04:10;101829.50;;;24.56;40.19
68366;BME280;55283;51.466;5.478;2023-05-23T04:06:35;101834.34;;;24.56;40.12
68366;BME280;55283;51.466;5.478;2023-05-23T04:09:01;101815.81;;;24.42;40.01
68366;BME280;55283;51.466;5.478;2023-05-23T04:11:27;101834.78;;;24.54;39.89
68366;BME280;55283;51.466;5.478;2023-05-23T04:13:53;101840.88;;;24.53;40.14
68366;BME280;55283;51.466;5.478;2023-05-23T04:16:18;101826.44;;;24.51;40.17
68366;BME280;55283;51.466;5.478;2023-05-23T04:18:44;101833.09;;;24.57;39.95
68366;BME280;55283;51.466;5.478;2023-05-23T04:21:11;101832.44;;;24.53;40.29
68366;BME280;55283;51.466;5.478;2023-05-23T04:23:37;101840.78;;;24.56;39.90
68366;BME280;55283;51.466;5.478;2023-05-23T04:26:03;101825.31;;;24.48;39.98
68366;BME280;55283;51.466;5.478;2023-05-23T04:28:33;101832.50;;;24.49;40.17
68366;BME280;55283;51.466;5.478;2023-05-23T04:30:58;101841.31;;;24.51;39.98
68366;BME280;55283;51.466;5.478;2023-05-23T04:33:24;101839.28;;;24.52;39.97
68366;BME280;55283;51.466;5.478;2023-05-23T04:35:50;101853.72;;;24.54;40.10
68366;BME280;55283;51.466;5.478;2023-05-23T04:38:15;101844.13;;;24.51;39.99
68366;BME280;55283;51.466;5.478;2023-05-23T04:40:41;101848.88;;;24.54;40.02
68366;BME280;55283;51.466;5.478;2023-05-23T04:43:06;101856.97;;;24.52;40.19
68366;BME280;55283;51.466;5.478;2023-05-23T04:45:34;101859.38;;;24.54;40.12
68366;BME280;55283;51.466;5.478;2023-05-23T04:48:01;101845.47;;;24.47;39.88
68366;BME280;55283;51.466;5.478;2023-05-23T04:50:26;101860.16;;;24.54;40.10
68366;BME280;55283;51.466;5.478;2023-05-23T04:52:55;101863.75;;;24.55;39.90
68366;BME280;55283;51.466;5.478;2023-05-23T04:55:21;101873.00;;;24.55;39.77
68366;BME280;55283;51.466;5.478;2023-05-23T04:57:47;101857.88;;;24.49;39.97
68366;BME280;55283;51.466;5.478;2023-05-23T05:00:12;101869.41;;;24.55;39.90
68366;BME280;55283;51.466;5.478;2023-05-23T05:02:39;101860.78;;;24.46;39.92
68366;BME280;55283;51.466;5.478;2023-05-23T05:05:05;101869.84;;;24.53;39.95
68366;BME280;55283;51.466;5.478;2023-05-23T05:07:31;101868.59;;;24.54;39.94
68366;BME280;55283;51.466;5.478;2023-05-23T05:09:56;101861.94;;;24.48;39.83
68366;BME280;55283;51.466;5.478;2023-05-23T05:12:22;101871.06;;;24.52;39.94
68366;BME280;55283;51.466;5.478;2023-05-23T05:14:47;101873.22;;;24.48;39.97
68366;BME280;55283;51.466;5.478;2023-05-23T05:17:12;101872.44;;;24.48;40.09
68366;BME280;55283;51.466;5.478;2023-05-23T05:19:38;101890.13;;;24.48;39.74
68366;BME280;55283;51.466;5.478;2023-05-23T05:22:03;101876.03;;;24.48;40.11
68366;BME280;55283;51.466;5.478;2023-05-23T05:24:29;101873.31;;;24.45;40.01
68366;BME280;55283;51.466;5.478;2023-05-23T05:26:54;101889.59;;;24.53;39.92
68366;BME280;55283;51.466;5.478;2023-05-23T05:29:20;101885.03;;;24.43;40.02
68366;BME280;55283;51.466;5.478;2023-05-23T05:31:46;101892.06;;;24.51;40.28
68366;BME280;55283;51.466;5.478;2023-05-23T05:34:11;101899.97;;;24.56;40.25
68366;BME280;55283;51.466;5.478;2023-05-23T05:36:38;101893.38;;;24.47;40.41
68366;BME280;55283;51.466;5.478;2023-05-23T05:39:10;101896.19;;;24.47;40.23
68366;BME280;55283;51.466;5.478;2023-05-23T05:41:35;101900.75;;;24.57;40.20
68366;BME280;55283;51.466;5.478;2023-05-23T05:44:00;101902.44;;;24.54;40.65
68366;BME280;55283;51.466;5.478;2023-05-23T05:46:26;101907.78;;;24.65;40.29
68366;BME280;55283;51.466;5.478;2023-05-23T05:48:51;101902.31;;;24.58;40.65
68366;BME280;55283;51.466;5.478;2023-05-23T05:51:17;101894.09;;;24.51;40.88
68366;BME280;55283;51.466;5.478;2023-05-23T05:53:42;101921.53;;;24.63;41.55
68366;BME280;55283;51.466;5.478;2023-05-23T05:56:07;101916.25;;;24.65;40.91
68366;BME280;55283;51.466;5.478;2023-05-23T05:58:33;101905.84;;;24.62;40.44
68366;BME280;55283;51.466;5.478;2023-05-23T06:00:58;101924.97;;;24.71;40.94
68366;BME280;55283;51.466;5.478;2023-05-23T06:03:24;101915.19;;;24.59;40.92
68366;BME280;55283;51.466;5.478;2023-05-23T06:05:51;101927.41;;;24.69;41.27
68366;BME280;55283;51.466;5.478;2023-05-23T06:08:16;101925.13;;;24.63;41.68
68366;BME280;55283;51.466;5.478;2023-05-23T06:10:42;101932.69;;;24.67;42.23
68366;BME280;55283;51.466;5.478;2023-05-23T06:13:07;101934.03;;;24.62;41.89
68366;BME280;55283;51.466;5.478;2023-05-23T06:15:33;101926.47;;;24.59;42.12
68366;BME280;55283;51.466;5.478;2023-05-23T06:17:58;101940.47;;;24.62;41.25
68366;BME280;55283;51.466;5.478;2023-05-23T06:20:23;101931.75;;;24.57;41.60
68366;BME280;55283;51.466;5.478;2023-05-23T06:22:49;101946.22;;;24.59;41.45
68366;BME280;55283;51.466;5.478;2023-05-23T06:25:14;101944.56;;;24.45;41.77
68366;BME280;55283;51.466;5.478;2023-05-23T06:27:40;101952.84;;;24.36;40.05
68366;BME280;55283;51.466;5.478;2023-05-23T06:30:06;101956.50;;;23.67;38.07
68366;BME280;55283;51.466;5.478;2023-05-23T06:32:31;101954.28;;;23.02;37.43
68366;BME280;55283;51.466;5.478;2023-05-23T06:34:57;101961.72;;;22.93;37.41
68366;BME280;55283;51.466;5.478;2023-05-23T06:37:22;101952.22;;;22.63;37.72
68366;BME280;55283;51.466;5.478;2023-05-23T06:39:47;101967.75;;;22.48;37.86
68366;BME280;55283;51.466;5.478;2023-05-23T06:42:14;101972.59;;;22.24;37.91
68366;BME280;55283;51.466;5.478;2023-05-23T06:44:39;101964.47;;;22.06;37.98
68366;BME280;55283;51.466;5.478;2023-05-23T06:47:06;101977.19;;;22.57;37.76
68366;BME280;55283;51.466;5.478;2023-05-23T06:49:31;101975.38;;;22.71;37.62
68366;BME280;55283;51.466;5.478;2023-05-23T06:51:57;101988.59;;;22.94;37.37
68366;BME280;55283;51.466;5.478;2023-05-23T06:54:22;101985.00;;;23.13;37.01
68366;BME280;55283;51.466;5.478;2023-05-23T06:56:47;101976.34;;;23.24;37.06
68366;BME280;55283;51.466;5.478;2023-05-23T06:59:13;102000.28;;;23.32;36.90
68366;BME280;55283;51.466;5.478;2023-05-23T07:01:38;101999.03;;;23.33;37.10
68366;BME280;55283;51.466;5.478;2023-05-23T07:04:04;101993.88;;;23.32;36.79
68366;BME280;55283;51.466;5.478;2023-05-23T07:06:29;102004.56;;;23.40;36.54
68366;BME280;55283;51.466;5.478;2023-05-23T07:08:55;102000.00;;;23.46;36.33
68366;BME280;55283;51.466;5.478;2023-05-23T07:11:21;102015.59;;;23.51;36.07
68366;BME280;55283;51.466;5.478;2023-05-23T07:13:46;101991.72;;;23.39;36.08
68366;BME280;55283;51.466;5.478;2023-05-23T07:16:12;102014.66;;;23.58;35.67
68366;BME280;55283;51.466;5.478;2023-05-23T07:18:38;102010.28;;;23.33;35.23
68366;BME280;55283;51.466;5.478;2023-05-23T07:21:03;102007.63;;;23.06;35.98
68366;BME280;55283;51.466;5.478;2023-05-23T07:23:31;102004.19;;;23.18;35.81
68366;BME280;55283;51.466;5.478;2023-05-23T07:25:58;102025.56;;;23.36;36.06
68366;BME280;55283;51.466;5.478;2023-05-23T07:28:24;102020.22;;;23.41;35.65
68366;BME280;55283;51.466;5.478;2023-05-23T07:30:49;102019.44;;;23.41;35.53
68366;BME280;55283;51.466;5.478;2023-05-23T07:33:15;102020.16;;;23.45;35.15
68366;BME280;55283;51.466;5.478;2023-05-23T07:35:40;102018.47;;;23.47;35.32
68366;BME280;55283;51.466;5.478;2023-05-23T07:38:06;102008.34;;;23.34;34.88
68366;BME280;55283;51.466;5.478;2023-05-23T07:40:32;102018.56;;;23.44;34.71
68366;BME280;55283;51.466;5.478;2023-05-23T07:42:57;102025.78;;;23.45;34.39
68366;BME280;55283;51.466;5.478;2023-05-23T07:45:24;102020.56;;;23.43;34.38
68366;BME280;55283;51.466;5.478;2023-05-23T07:47:49;102026.13;;;23.47;34.40
68366;BME280;55283;51.466;5.478;2023-05-23T07:50:15;102014.53;;;23.45;34.30
68366;BME280;55283;51.466;5.478;2023-05-23T07:52:40;102025.63;;;23.52;34.64
68366;BME280;55283;51.466;5.478;2023-05-23T07:55:07;102025.25;;;23.50;34.24
68366;BME280;55283;51.466;5.478;2023-05-23T07:57:33;102037.25;;;23.54;34.04
68366;BME280;55283;51.466;5.478;2023-05-23T07:59:58;102033.09;;;23.59;33.44
68366;BME280;55283;51.466;5.478;2023-05-23T08:02:24;102040.75;;;23.58;33.96
68366;BME280;55283;51.466;5.478;2023-05-23T08:04:49;102035.50;;;23.60;34.30
68366;BME280;55283;51.466;5.478;2023-05-23T08:07:15;102039.69;;;23.52;33.65
68366;BME280;55283;51.466;5.478;2023-05-23T08:09:40;102047.09;;;23.62;33.98
68366;BME280;55283;51.466;5.478;2023-05-23T08:12:07;102054.75;;;23.62;33.87
68366;BME280;55283;51.466;5.478;2023-05-23T08:14:34;102052.69;;;23.66;33.32
68366;BME280;55283;51.466;5.478;2023-05-23T08:16:59;102038.03;;;23.55;33.49
68366;BME280;55283;51.466;5.478;2023-05-23T08:19:25;102051.88;;;23.65;33.21
68366;BME280;55283;51.466;5.478;2023-05-23T08:21:50;102057.44;;;23.69;32.83
68366;BME280;55283;51.466;5.478;2023-05-23T08:24:18;102054.25;;;23.67;32.64
68366;BME280;55283;51.466;5.478;2023-05-23T08:26:43;102053.09;;;23.64;32.95
68366;BME280;55283;51.466;5.478;2023-05-23T08:29:09;102053.09;;;23.64;32.95
68366;BME280;55283;51.466;5.478;2023-05-23T08:31:35;102056.28;;;23.66;32.69
68366;BME280;55283;51.466;5.478;2023-05-23T08:34:00;102065.97;;;23.65;32.60
68366;BME280;55283;51.466;5.478;2023-05-23T08:36:26;102057.53;;;23.65;32.46
68366;BME280;55283;51.466;5.478;2023-05-23T08:38:51;102060.25;;;23.69;32.64
68366;BME280;55283;51.466;5.478;2023-05-23T08:41:22;102060.25;;;23.69;32.82
68366;BME280;55283;51.466;5.478;2023-05-23T08:43:48;102054.16;;;23.70;32.75
68366;BME280;55283;51.466;5.478;2023-05-23T08:46:14;102069.47;;;23.69;32.14
68366;BME280;55283;51.466;5.478;2023-05-23T08:48:41;102057.78;;;23.71;32.42
68366;BME280;55283;51.466;5.478;2023-05-23T08:51:12;102067.38;;;23.73;32.69
68366;BME280;55283;51.466;5.478;2023-05-23T08:53:41;102065.44;;;23.70;32.37
68366;BME280;55283;51.466;5.478;2023-05-23T08:56:11;102070.56;;;23.76;32.55
68366;BME280;55283;51.466;5.478;2023-05-23T08:58:37;102054.69;;;23.65;33.11
68366;BME280;55283;51.466;5.478;2023-05-23T09:01:04;102065.09;;;23.68;32.62
68366;BME280;55283;51.466;5.478;2023-05-23T09:03:30;102068.25;;;23.70;32.14
68366;BME280;55283;51.466;5.478;2023-05-23T09:05:56;102067.81;;;23.72;32.80
68366;BME280;55283;51.466;5.478;2023-05-23T09:08:22;102070.28;;;23.70;32.77
68366;BME280;55283;51.466;5.478;2023-05-23T09:10:49;102072.00;;;23.64;32.31
68366;BME280;55283;51.466;5.478;2023-05-23T09:13:15;102081.97;;;23.68;32.40
68366;BME280;55283;51.466;5.478;2023-05-23T09:18:25;102076.69;;;23.70;32.52
68366;BME280;55283;51.466;5.478;2023-05-23T09:20:51;102070.44;;;23.63;32.41
68366;BME280;55283;51.466;5.478;2023-05-23T09:23:17;102081.53;;;23.70;32.42
68366;BME280;55283;51.466;5.478;2023-05-23T09:25:46;102085.50;;;23.72;32.12
68366;BME280;55283;51.466;5.478;2023-05-23T09:28:12;102083.19;;;23.67;32.46
68366;BME280;55283;51.466;5.478;2023-05-23T09:30:38;102090.72;;;23.74;32.29
68366;BME280;55283;51.466;5.478;2023-05-23T09:33:03;102078.44;;;23.64;32.16
68366;BME280;55283;51.466;5.478;2023-05-23T09:35:29;102102.75;;;23.75;32.12
68366;BME280;55283;51.466;5.478;2023-05-23T09:37:56;102093.44;;;23.78;32.38
68366;BME280;55283;51.466;5.478;2023-05-23T09:40:29;102084.25;;;23.73;31.88
68366;BME280;55283;51.466;5.478;2023-05-23T09:43:04;102095.03;;;23.79;31.96
68366;BME280;55283;51.466;5.478;2023-05-23T09:45:32;102095.59;;;23.70;32.26
68366;BME280;55283;51.466;5.478;2023-05-23T09:47:57;102090.72;;;23.74;32.35
68366;BME280;55283;51.466;5.478;2023-05-23T09:50:25;102091.63;;;23.67;32.39
68366;BME280;55283;51.466;5.478;2023-05-23T09:52:55;102097.47;;;23.77;32.29
68366;BME280;55283;51.466;5.478;2023-05-23T09:55:21;102099.06;;;23.78;32.51
68366;BME280;55283;51.466;5.478;2023-05-23T09:57:48;102098.00;;;23.71;32.54
68366;BME280;55283;51.466;5.478;2023-05-23T10:00:17;102092.09;;;23.66;31.88
68366;BME280;55283;51.466;5.478;2023-05-23T10:05:52;102099.06;;;23.78;31.70
68366;BME280;55283;51.466;5.478;2023-05-23T10:08:27;102097.03;;;23.78;31.58
68366;BME280;55283;51.466;5.478;2023-05-23T10:13:21;102094.72;;;23.73;31.46
68366;BME280;55283;51.466;5.478;2023-05-23T10:15:56;102107.53;;;23.78;31.21
68366;BME280;55283;51.466;5.478;2023-05-23T10:18:25;102097.13;;;23.75;31.30
68366;BME280;55283;51.466;5.478;2023-05-23T10:20:56;102097.41;;;23.80;31.75
68366;BME280;55283;51.466;5.478;2023-05-23T10:23:27;102095.81;;;23.79;31.55
68366;BME280;55283;51.466;5.478;2023-05-23T10:25:54;102103.47;;;23.79;32.60
68366;BME280;55283;51.466;5.478;2023-05-23T10:28:20;102098.19;;;23.81;32.52
68366;BME280;55283;51.466;5.478;2023-05-23T10:30:46;102096.97;;;23.82;33.29
68366;BME280;55283;51.466;5.478;2023-05-23T10:33:13;102096.97;;;23.82;34.26
68366;BME280;55283;51.466;5.478;2023-05-23T10:38:49;102088.59;;;23.78;34.71
68366;BME280;55283;51.466;5.478;2023-05-23T10:46:55;102096.00;;;23.88;34.74
68366;BME280;55283;51.466;5.478;2023-05-23T10:49:41;102091.25;;;23.85;34.89
68366;BME280;55283;51.466;5.478;2023-05-23T10:52:08;102087.72;;;23.81;35.13
68366;BME280;55283;51.466;5.478;2023-05-23T10:54:36;102071.78;;;23.75;34.80
68366;BME280;55283;51.466;5.478;2023-05-23T10:57:05;102091.69;;;23.84;34.42
68366;BME280;55283;51.466;5.478;2023-05-23T10:59:31;102095.31;;;23.84;34.25
68366;BME280;55283;51.466;5.478;2023-05-23T11:01:56;102089.31;;;23.82;34.32
68366;BME280;55283;51.466;5.478;2023-05-23T11:04:27;102095.22;;;23.88;34.05
68366;BME280;55283;51.466;5.478;2023-05-23T11:06:54;102100.50;;;23.86;34.15
68366;BME280;55283;51.466;5.478;2023-05-23T11:09:21;102089.25;;;23.86;33.88
68366;BME280;55283;51.466;5.478;2023-05-23T11:12:06;102094.63;;;23.97;33.60
68366;BME280;55283;51.466;5.478;2023-05-23T11:19:54;102078.97;;;23.95;33.01
68366;BME280;55283;51.466;5.478;2023-05-23T11:22:20;102078.03;;;24.02;33.27
68366;BME280;55283;51.466;5.478;2023-05-23T11:24:50;102087.69;;;24.01;33.28
68366;BME280;55283;51.466;5.478;2023-05-23T11:27:16;102091.69;;;24.04;33.19
68366;BME280;55283;51.466;5.478;2023-05-23T11:29:45;102098.13;;;24.04;33.07
68366;BME280;55283;51.466;5.478;2023-05-23T11:32:20;102092.47;;;24.04;32.99
68366;BME280;55283;51.466;5.478;2023-05-23T11:34:46;102090.03;;;24.06;32.86
68366;BME280;55283;51.466;5.478;2023-05-23T11:37:11;102094.41;;;24.07;32.94
68366;BME280;55283;51.466;5.478;2023-05-23T11:39:37;102098.47;;;24.06;33.03
68366;BME280;55283;51.466;5.478;2023-05-23T11:42:02;102096.44;;;24.07;32.84
68366;BME280;55283;51.466;5.478;2023-05-23T11:44:28;102091.59;;;24.07;33.04
68366;BME280;55283;51.466;5.478;2023-05-23T11:47:06;102084.41;;;24.06;33.11
68366;BME280;55283;51.466;5.478;2023-05-23T11:49:37;102090.03;;;24.06;32.86
68366;BME280;55283;51.466;5.478;2023-05-23T11:52:03;102097.94;;;24.11;32.24
68366;BME280;55283;51.466;5.478;2023-05-23T11:54:29;102099.09;;;24.14;33.10
68366;BME280;55283;51.466;5.478;2023-05-23T11:56:55;102094.78;;;24.09;33.23
68366;BME280;55283;51.466;5.478;2023-05-23T11:59:22;102101.81;;;24.17;32.68
68366;BME280;55283;51.466;5.478;2023-05-23T12:01:50;102100.59;;;24.19;32.86
68366;BME280;55283;51.466;5.478;2023-05-23T12:04:15;102103.44;;;24.19;32.84
68366;BME280;55283;51.466;5.478;2023-05-23T12:06:41;102112.25;;;24.21;33.02
68366;BME280;55283;51.466;5.478;2023-05-23T12:09:09;102104.13;;;24.23;32.79
68366;BME280;55283;51.466;5.478;2023-05-23T12:11:35;102110.53;;;24.23;32.71
68366;BME280;55283;51.466;5.478;2023-05-23T12:14:01;102104.13;;;24.23;32.56
68366;BME280;55283;51.466;5.478;2023-05-23T12:16:33;102091.09;;;24.12;31.67
68366;BME280;55283;51.466;5.478;2023-05-23T12:19:00;102082.00;;;24.05;32.51
68366;BME280;55283;51.466;5.478;2023-05-23T12:21:27;102095.84;;;24.15;32.46
68366;BME280;55283;51.466;5.478;2023-05-23T12:24:16;102121.47;;;24.21;32.70
68366;BME280;55283;51.466;5.478;2023-05-23T12:26:58;102110.72;;;24.16;32.49
68366;BME280;55283;51.466;5.478;2023-05-23T12:29:32;102120.25;;;24.22;32.60
68366;BME280;55283;51.466;5.478;2023-05-23T12:32:02;102100.69;;;24.15;32.31
68366;BME280;55283;51.466;5.478;2023-05-23T12:34:28;102112.31;;;24.17;32.52
68366;BME280;55283;51.466;5.478;2023-05-23T12:36:55;102118.03;;;24.13;32.39
68366;BME280;55283;51.466;5.478;2023-05-23T12:39:27;102119.69;;;24.11;32.45
68366;BME280;55283;51.466;5.478;2023-05-23T12:41:54;102113.63;;;24.12;32.17
68366;BME280;55283;51.466;5.478;2023-05-23T12:44:23;102124.09;;;24.12;32.24
68366;BME280;55283;51.466;5.478;2023-05-23T12:46:48;102110.97;;;24.05;32.30
68366;BME280;55283;51.466;5.478;2023-05-23T12:49:15;102124.03;;;24.15;32.32
68366;BME280;55283;51.466;5.478;2023-05-23T12:51:40;102137.31;;;24.15;32.02
68366;BME280;55283;51.466;5.478;2023-05-23T12:54:07;102140.56;;;24.13;31.84
68366;BME280;55283;51.466;5.478;2023-05-23T12:56:33;102139.25;;;24.18;31.46
68366;BME280;55283;51.466;5.478;2023-05-23T12:58:58;102138.44;;;24.17;31.70
68366;BME280;55283;51.466;5.478;2023-05-23T13:01:26;102129.28;;;24.13;31.69
68366;BME280;55283;51.466;5.478;2023-05-23T13:03:51;102132.56;;;24.12;31.55
68366;BME280;55283;51.466;5.478;2023-05-23T13:06:17;102138.44;;;24.17;31.70
68366;BME280;55283;51.466;5.478;2023-05-23T13:08:42;102137.94;;;24.23;31.68
68366;BME280;55283;51.466;5.478;2023-05-23T13:11:08;102139.19;;;24.22;31.66
68366;BME280;55283;51.466;5.478;2023-05-23T13:13:33;102138.81;;;24.20;31.39
68366;BME280;55283;51.466;5.478;2023-05-23T13:15:59;102130.72;;;24.22;31.66
68366;BME280;55283;51.466;5.478;2023-05-23T13:18:25;102139.19;;;24.22;31.54